Time;durP1;ratioP1;P1;durP2;ratioP2;P2;SDS_P1;SDS_P2;PMS_P1;PMS_P2;Temp;Humidity;BMP_temperature;BMP_pressure;BME280_temperature;BME280_humidity;BME280_pressure;Samples;Min_cycle;Max_cycle;Signal;HPM_P1;HPM_P2
2021/06/20 00:00:24;;;;;;;13.32;8.82;;;;;;;21.51;65.73;100727.66;5093507;28;20482;-71
2021/06/20 00:02:49;;;;;;;11.98;8.73;;;;;;;21.55;65.29;100713.69;5075363;28;20028;-71
2021/06/20 00:05:36;;;;;;;11.65;8.93;;;;;;;21.63;65.06;100710.22;5093256;28;20032;-71
2021/06/20 00:08:04;;;;;;;12.25;9.20;;;;;;;21.41;65.78;100702.28;5092000;28;20030;-71
2021/06/20 00:10:29;;;;;;;16.23;8.73;;;;;;;21.65;65.05;100708.53;5092237;28;20016;-71
2021/06/20 00:12:57;;;;;;;14.63;9.20;;;;;;;21.69;65.24;100705.03;5075120;28;20056;-70
2021/06/20 00:15:23;;;;;;;11.88;8.70;;;;;;;21.87;64.33;100694.66;5058674;28;20016;-71
2021/06/20 00:17:49;;;;;;;12.90;9.57;;;;;;;21.91;64.19;100695.53;5074230;28;20039;-71
2021/06/20 00:20:17;;;;;;;15.55;9.50;;;;;;;21.92;64.23;100688.56;5093220;28;20100;-71
2021/06/20 00:22:43;;;;;;;15.63;10.10;;;;;;;21.70;65.20;100675.34;5071280;28;20387;-71
2021/06/20 00:25:10;;;;;;;12.52;10.35;;;;;;;21.20;66.94;100664.63;5062497;28;20055;-70
2021/06/20 00:27:35;;;;;;;13.65;9.93;;;;;;;21.40;65.97;100661.22;5055075;28;20028;-70
2021/06/20 00:30:06;;;;;;;13.45;9.23;;;;;;;21.56;65.76;100663.03;5055444;28;20101;-71
2021/06/20 00:32:31;;;;;;;15.63;10.80;;;;;;;21.29;66.77;100643.72;5074990;28;20051;-71
2021/06/20 00:34:57;;;;;;;12.68;10.65;;;;;;;21.54;65.85;100654.28;5075286;28;20448;-71
2021/06/20 00:37:22;;;;;;;15.35;10.07;;;;;;;21.73;65.29;100633.41;5093059;28;20475;-71
2021/06/20 00:39:48;;;;;;;14.48;10.75;;;;;;;21.69;65.05;100642.16;5075209;28;20016;-71
2021/06/20 00:42:13;;;;;;;17.70;11.05;;;;;;;21.58;65.93;100634.22;5073165;28;20074;-70
2021/06/20 00:44:46;;;;;;;16.23;12.15;;;;;;;21.53;65.85;100626.34;5056524;28;20412;-70
2021/06/20 00:47:12;;;;;;;17.33;12.88;;;;;;;21.56;66.09;100610.63;5072837;28;20028;-71
2021/06/20 00:49:38;;;;;;;17.23;12.68;;;;;;;21.57;65.86;100601.91;5054810;28;20029;-71
2021/06/20 00:52:04;;;;;;;17.30;13.57;;;;;;;21.38;66.42;100600.09;5086199;28;20032;-71
2021/06/20 00:54:30;;;;;;;21.40;15.32;;;;;;;21.34;66.78;100574.75;5074829;28;20042;-71
2021/06/20 00:56:56;;;;;;;22.15;17.75;;;;;;;20.99;68.26;100572.00;5074808;28;20362;-71
2021/06/20 00:59:22;;;;;;;22.88;15.23;;;;;;;21.27;67.24;100572.09;5074837;28;20024;-71
2021/06/20 01:01:47;;;;;;;19.33;15.02;;;;;;;21.27;67.18;100561.63;5092685;28;20055;-71
2021/06/20 01:04:13;;;;;;;21.52;15.25;;;;;;;21.34;66.88;100566.88;5092146;28;20062;-71
2021/06/20 01:06:39;;;;;;;18.90;14.65;;;;;;;21.26;67.41;100570.34;5091083;28;20108;-71
2021/06/20 01:09:04;;;;;;;18.75;14.63;;;;;;;21.23;66.80;100565.09;5075016;28;20024;-71
2021/06/20 01:11:30;;;;;;;21.58;15.40;;;;;;;21.14;67.27;100559.84;5054174;28;20051;-71
2021/06/20 01:13:56;;;;;;;21.42;15.63;;;;;;;21.09;68.04;100561.56;5072529;28;20430;-71
2021/06/20 01:16:21;;;;;;;23.50;15.32;;;;;;;21.16;67.64;100558.09;5072595;28;20036;-71
2021/06/20 01:18:47;;;;;;;18.05;14.27;;;;;;;21.29;66.95;100549.41;5072192;28;20382;-71
2021/06/20 01:21:12;;;;;;;23.42;14.35;;;;;;;21.25;66.98;100550.28;5072524;28;20033;-71
2021/06/20 01:23:38;;;;;;;22.38;14.50;;;;;;;21.16;67.30;100573.81;5071215;28;20123;-71
2021/06/20 01:26:04;;;;;;;19.20;13.10;;;;;;;21.19;67.27;100579.06;5072368;28;20027;-71
2021/06/20 01:28:40;;;;;;;20.73;13.60;;;;;;;21.20;67.23;100574.69;5052760;28;20033;-70
2021/06/20 01:31:10;;;;;;;18.13;13.43;;;;;;;21.12;67.41;100577.28;5035836;28;20032;-70
2021/06/20 01:33:38;;;;;;;20.35;13.80;;;;;;;21.17;66.91;100591.28;5055006;28;20374;-71
2021/06/20 01:36:04;;;;;;;20.45;14.00;;;;;;;21.16;67.08;100610.47;5071610;28;20021;-70
2021/06/20 01:38:29;;;;;;;17.50;12.98;;;;;;;21.19;67.03;100623.56;5054891;28;20382;-71
2021/06/20 01:40:55;;;;;;;16.92;12.90;;;;;;;21.16;67.00;100627.03;5070524;28;20496;-71
2021/06/20 01:43:20;;;;;;;20.50;13.65;;;;;;;21.05;67.62;100633.09;5076090;28;20024;-71
2021/06/20 01:45:46;;;;;;;20.55;13.25;;;;;;;21.11;67.40;100638.38;5074668;28;20024;-71
2021/06/20 01:48:11;;;;;;;18.05;13.50;;;;;;;21.14;67.26;100648.88;5075780;28;20020;-71
2021/06/20 01:50:37;;;;;;;18.25;14.23;;;;;;;21.11;67.61;100648.84;5074680;28;20111;-71
2021/06/20 01:53:12;;;;;;;21.20;14.00;;;;;;;21.11;67.43;100651.47;5062977;28;20036;-71
2021/06/20 01:55:39;;;;;;;18.17;13.88;;;;;;;21.20;67.03;100632.28;5054380;28;20033;-71
2021/06/20 01:58:06;;;;;;;20.05;14.35;;;;;;;21.25;66.93;100634.09;5071109;28;20052;-71
2021/06/20 02:00:33;;;;;;;17.98;13.43;;;;;;;21.23;66.99;100617.50;5057116;28;20093;-71
2021/06/20 02:03:23;;;;;;;18.45;13.75;;;;;;;21.16;67.19;100618.31;5063125;28;20021;-70
2021/06/20 02:05:50;;;;;;;18.08;13.60;;;;;;;21.16;67.06;100600.00;5064916;28;20074;-71
2021/06/20 02:08:19;;;;;;;21.95;14.40;;;;;;;21.11;67.40;100591.25;5054361;28;20116;-71
2021/06/20 02:10:49;;;;;;;22.20;15.13;;;;;;;21.20;67.07;100586.03;5058058;28;20024;-71
2021/06/20 02:13:15;;;;;;;20.60;13.82;;;;;;;21.14;66.93;100565.06;5059494;28;20114;-71
2021/06/20 02:15:41;;;;;;;23.38;15.10;;;;;;;21.09;67.29;100551.09;5074832;28;20040;-70
2021/06/20 02:18:07;;;;;;;20.60;13.23;;;;;;;21.03;67.67;100551.91;5074162;28;20033;-71
2021/06/20 02:20:32;;;;;;;20.50;15.05;;;;;;;21.02;67.62;100551.06;5075370;28;20020;-71
2021/06/20 02:22:58;;;;;;;24.58;15.00;;;;;;;20.83;68.42;100543.97;5074038;28;20024;-71
2021/06/20 02:25:24;;;;;;;22.88;14.32;;;;;;;20.83;68.46;100533.50;5073947;28;20450;-71
2021/06/20 02:27:52;;;;;;;21.95;14.98;;;;;;;20.43;70.23;100534.09;5075139;28;20029;-71
2021/06/20 02:30:19;;;;;;;23.35;15.77;;;;;;;20.75;69.17;100535.19;5075148;28;20493;-72
2021/06/20 02:32:45;;;;;;;22.95;16.08;;;;;;;20.60;69.57;100536.81;5075092;28;20100;-71
2021/06/20 02:35:12;;;;;;;25.52;15.82;;;;;;;20.41;70.76;100535.84;5075296;28;20438;-71
2021/06/20 02:37:39;;;;;;;25.70;17.33;;;;;;;20.61;69.50;100535.94;5073216;28;20422;-71
2021/06/20 02:40:07;;;;;;;21.42;15.73;;;;;;;20.63;69.77;100530.75;5073850;28;20028;-72
2021/06/20 02:42:33;;;;;;;25.77;16.63;;;;;;;20.56;70.26;100529.81;5067186;28;20028;-71
2021/06/20 02:44:58;;;;;;;23.55;16.55;;;;;;;20.46;71.06;100536.75;5063292;28;20330;-71
2021/06/20 02:47:24;;;;;;;26.17;16.77;;;;;;;20.65;70.16;100522.03;5065330;28;20037;-73
2021/06/20 02:49:49;;;;;;;23.77;17.73;;;;;;;20.36;71.72;100507.03;5062067;28;20104;-73
2021/06/20 02:52:15;;;;;;;27.45;18.15;;;;;;;20.54;71.25;100500.16;5065428;28;20021;-73
2021/06/20 02:54:50;;;;;;;29.30;19.20;;;;;;;20.42;71.52;100491.38;5060033;28;20086;-73
2021/06/20 02:57:28;;;;;;;28.33;19.55;;;;;;;20.43;71.51;100477.41;5037685;28;20474;-73
2021/06/20 02:59:54;;;;;;;23.83;17.58;;;;;;;20.41;72.06;100478.28;5056470;28;20024;-73
2021/06/20 03:02:21;;;;;;;27.58;19.27;;;;;;;20.10;73.20;100463.28;5072551;28;20099;-74
2021/06/20 03:04:47;;;;;;;25.45;18.02;;;;;;;20.43;71.99;100461.72;5073329;28;20036;-73
2021/06/20 03:07:13;;;;;;;33.17;20.00;;;;;;;20.08;73.78;100459.78;5074573;28;20031;-73
2021/06/20 03:09:38;;;;;;;27.83;19.23;;;;;;;20.12;73.68;100458.94;5074502;28;20025;-74
2021/06/20 03:12:20;;;;;;;26.38;18.83;;;;;;;20.00;73.78;100456.22;5073722;28;20602;-73
2021/06/20 03:14:46;;;;;;;28.83;20.73;;;;;;;19.89;74.61;100452.63;5073818;28;20082;-73
2021/06/20 03:17:14;;;;;;;24.92;18.40;;;;;;;20.44;72.36;100442.56;5039863;28;20051;-73
2021/06/20 03:19:40;;;;;;;26.20;19.80;;;;;;;20.19;73.34;100430.22;5056389;28;20027;-74
2021/06/20 03:22:06;;;;;;;22.95;17.20;;;;;;;20.79;70.90;100427.06;5055906;28;20032;-73
2021/06/20 03:24:37;;;;;;;26.13;19.35;;;;;;;20.54;71.57;100421.66;5056201;28;20039;-73
2021/06/20 03:27:03;;;;;;;24.98;17.45;;;;;;;20.90;70.02;100414.00;5056514;28;20024;-73
2021/06/20 03:29:29;;;;;;;26.58;17.80;;;;;;;20.57;71.99;100416.44;5056025;28;20385;-73
2021/06/20 03:31:55;;;;;;;25.10;17.52;;;;;;;20.73;70.97;100418.28;5056029;28;20027;-73
2021/06/20 03:34:21;;;;;;;33.38;18.88;;;;;;;20.28;72.66;100425.03;5073919;28;20028;-73
2021/06/20 03:36:47;;;;;;;27.30;18.38;;;;;;;20.02;73.96;100417.91;5055909;28;20028;-73
2021/06/20 03:39:13;;;;;;;25.10;18.35;;;;;;;20.25;73.48;100409.31;5055977;28;20366;-73
2021/06/20 03:41:38;;;;;;;28.33;17.63;;;;;;;20.11;73.93;100402.28;5073718;28;20093;-73
2021/06/20 03:44:08;;;;;;;22.23;17.77;;;;;;;19.81;75.04;100398.56;5055934;28;20028;-73
2021/06/20 03:46:34;;;;;;;26.08;16.88;;;;;;;19.89;75.17;100387.28;5056262;28;20436;-73
2021/06/20 03:49:00;;;;;;;25.40;17.65;;;;;;;19.83;75.21;100383.78;5055846;28;20020;-73
2021/06/20 03:51:27;;;;;;;27.05;17.30;;;;;;;19.87;75.23;100381.19;5063203;28;20396;-73
2021/06/20 03:53:52;;;;;;;25.88;18.05;;;;;;;19.88;75.13;100367.25;5089848;28;20028;-73
2021/06/20 03:56:17;;;;;;;25.88;18.92;;;;;;;19.63;76.41;100362.72;5073475;28;20024;-73
2021/06/20 03:58:43;;;;;;;27.90;17.15;;;;;;;19.91;75.51;100356.84;5055732;28;20017;-73
2021/06/20 04:01:08;;;;;;;28.55;17.13;;;;;;;19.75;75.96;100361.94;5059062;28;20035;-73
2021/06/20 04:03:34;;;;;;;22.80;16.05;;;;;;;19.61;76.68;100348.78;5093653;28;20035;-73
2021/06/20 04:05:59;;;;;;;24.27;16.15;;;;;;;19.63;76.72;100344.44;5080613;28;20036;-73
2021/06/20 04:08:25;;;;;;;22.90;17.67;;;;;;;19.58;77.45;100332.19;5055578;28;20029;-73
2021/06/20 04:10:50;;;;;;;21.52;16.88;;;;;;;19.38;78.18;100327.69;5055360;28;20029;-73
2021/06/20 04:13:16;;;;;;;32.97;17.45;;;;;;;19.54;77.59;100320.84;5051278;28;20041;-73
2021/06/20 04:15:42;;;;;;;29.35;17.33;;;;;;;19.49;77.73;100312.97;5052417;28;20475;-73
2021/06/20 04:18:08;;;;;;;21.23;15.90;;;;;;;19.89;76.05;100311.50;5033061;28;20044;-72
2021/06/20 04:20:34;;;;;;;18.95;16.48;;;;;;;19.90;76.25;100302.81;5032510;28;20030;-73
2021/06/20 04:22:59;;;;;;;24.98;16.20;;;;;;;19.85;76.16;100301.03;5031041;28;20051;-73
2021/06/20 04:25:25;;;;;;;22.88;15.98;;;;;;;19.65;77.58;100292.22;5032364;28;20025;-73
2021/06/20 04:27:51;;;;;;;21.95;16.50;;;;;;;19.62;77.81;100302.63;5031193;28;20052;-73
2021/06/20 04:30:22;;;;;;;23.73;15.77;;;;;;;19.69;77.53;100283.53;5031124;28;20100;-74
2021/06/20 04:32:49;;;;;;;25.08;15.68;;;;;;;19.74;77.67;100291.38;5032184;28;20029;-74
2021/06/20 04:35:16;;;;;;;19.67;13.68;;;;;;;19.83;76.97;100286.19;5014386;28;20060;-73
2021/06/20 04:37:42;;;;;;;20.38;14.90;;;;;;;19.85;76.95;100285.34;5031107;28;20482;-73
2021/06/20 04:40:09;;;;;;;20.85;14.25;;;;;;;19.97;76.70;100296.75;5031057;28;20073;-73
2021/06/20 04:42:40;;;;;;;18.83;14.55;;;;;;;19.98;76.53;100463.19;5039988;28;20036;-74
2021/06/20 04:45:08;;;;;;;20.00;13.70;;;;;;;20.16;75.69;100519.09;5067471;28;20135;-73
2021/06/20 04:47:34;;;;;;;18.92;13.00;;;;;;;20.34;75.31;100445.97;5052271;28;20200;-73
2021/06/20 04:50:00;;;;;;;20.88;12.93;;;;;;;20.59;74.48;100508.91;5050502;28;20052;-74
2021/06/20 04:52:26;;;;;;;16.17;12.60;;;;;;;20.62;74.41;100474.91;5051739;28;20107;-74
2021/06/20 04:54:53;;;;;;;25.27;12.35;;;;;;;20.82;74.06;100454.09;5050660;28;20032;-73
2021/06/20 04:57:29;;;;;;;14.07;12.10;;;;;;;21.02;73.63;100455.91;5050787;28;20497;-73
2021/06/20 04:59:57;;;;;;;19.55;13.77;;;;;;;20.94;74.40;100458.53;5050728;28;20133;-74
2021/06/20 05:02:23;;;;;;;17.15;13.50;;;;;;;21.10;74.60;100442.84;5041624;28;20029;-73
2021/06/20 05:04:50;;;;;;;14.45;12.82;;;;;;;21.11;74.15;100436.75;5028602;28;20029;-74
2021/06/20 05:07:16;;;;;;;18.40;12.80;;;;;;;21.18;74.79;100446.38;5032564;28;20056;-73
2021/06/20 05:09:42;;;;;;;18.02;12.63;;;;;;;21.27;75.04;100441.16;5034003;28;20040;-73
2021/06/20 05:12:09;;;;;;;20.13;13.32;;;;;;;21.24;74.87;100451.63;5035013;28;77477;-73
2021/06/20 05:14:36;;;;;;;24.20;14.30;;;;;;;21.45;76.29;100444.66;5042140;28;20033;-73
2021/06/20 05:17:01;;;;;;;17.58;13.23;;;;;;;21.38;77.66;100456.00;5035313;28;20386;-73
2021/06/20 05:19:27;;;;;;;20.45;14.32;;;;;;;21.43;79.02;100456.88;5035538;28;20018;-73
2021/06/20 05:21:52;;;;;;;21.23;12.43;;;;;;;21.25;79.38;100442.88;5036492;28;20021;-73
2021/06/20 05:24:18;;;;;;;21.77;11.85;;;;;;;21.36;85.57;100423.69;5038038;28;20038;-73
2021/06/20 05:26:44;;;;;;;13.68;8.90;;;;;;;21.23;78.73;100418.44;5055255;28;20478;-73
2021/06/20 05:29:09;;;;;;;10.27;7.88;;;;;;;21.24;78.62;100424.56;5056743;28;20028;-74
2021/06/20 05:31:35;;;;;;;14.65;8.82;;;;;;;21.08;79.78;100434.13;5055163;28;20028;-75
2021/06/20 05:34:01;;;;;;;14.90;7.50;;;;;;;20.97;80.53;100429.72;5055032;28;20021;-75
2021/06/20 05:36:26;;;;;;;10.65;7.32;;;;;;;21.04;79.19;100432.38;5042584;28;20366;-71
2021/06/20 05:38:52;;;;;;;12.57;8.25;;;;;;;20.87;79.59;100464.59;5034987;28;20107;-71
2021/06/20 05:41:17;;;;;;;10.60;7.13;;;;;;;20.84;78.22;100456.75;5034887;28;20021;-71
2021/06/20 05:43:43;;;;;;;14.95;9.32;;;;;;;20.86;82.31;100440.16;5034852;28;20029;-71
2021/06/20 05:46:08;;;;;;;14.57;8.18;;;;;;;20.30;84.14;100454.69;5034999;28;20035;-71
2021/06/20 05:48:34;;;;;;;10.23;6.72;;;;;;;20.20;82.07;100452.88;5035894;28;20028;-71
2021/06/20 05:51:00;;;;;;;10.25;6.50;;;;;;;20.13;80.98;100452.84;5034986;28;20431;-70
2021/06/20 05:53:25;;;;;;;9.13;6.07;;;;;;;20.23;81.83;100426.75;5034800;28;20032;-71
2021/06/20 05:55:51;;;;;;;8.27;5.43;;;;;;;20.11;83.25;100423.19;5035885;28;20386;-71
2021/06/20 05:58:17;;;;;;;9.75;5.30;;;;;;;19.93;82.54;100410.00;5034653;28;20117;-70
2021/06/20 06:00:42;;;;;;;9.27;4.68;;;;;;;19.80;82.46;100407.28;5033905;28;20029;-71
2021/06/20 06:03:08;;;;;;;8.60;3.78;;;;;;;19.75;83.02;100427.25;5018063;28;20492;-71
2021/06/20 06:05:34;;;;;;;9.52;3.33;;;;;;;19.87;81.14;100417.78;5034201;28;20025;-71
2021/06/20 06:08:00;;;;;;;16.60;4.72;;;;;;;20.13;82.50;100437.16;5034195;28;20398;-71
2021/06/20 06:10:29;;;;;;;12.95;4.22;;;;;;;19.92;82.40;100416.09;5034337;28;20030;-71
2021/06/20 06:12:55;;;;;;;5.55;3.30;;;;;;;19.80;82.64;100407.28;5051026;28;20480;-71
2021/06/20 06:15:21;;;;;;;6.85;3.42;;;;;;;19.90;83.41;100404.75;5037155;28;20029;-70
2021/06/20 06:17:49;;;;;;;7.13;3.30;;;;;;;20.29;81.06;100379.72;5068797;28;20069;-71
2021/06/20 06:20:14;;;;;;;8.82;3.47;;;;;;;19.84;81.67;100338.47;5071642;28;20052;-71
2021/06/20 06:22:40;;;;;;;9.57;3.67;;;;;;;19.23;84.79;100321.47;5055262;28;20208;-71
2021/06/20 06:25:07;;;;;;;9.43;4.45;;;;;;;19.25;84.80;100319.75;5053908;28;20036;-71
2021/06/20 06:27:32;;;;;;;5.97;3.25;;;;;;;19.47;84.17;100325.16;5037267;28;20470;-71
2021/06/20 06:29:58;;;;;;;10.32;3.72;;;;;;;19.47;84.72;100325.16;5054935;28;20035;-71
2021/06/20 06:32:23;;;;;;;8.43;4.00;;;;;;;19.71;84.04;100323.59;5053925;28;20478;-71
2021/06/20 06:34:48;;;;;;;9.18;4.03;;;;;;;19.94;83.71;100299.38;5053638;28;20029;-71
2021/06/20 06:37:14;;;;;;;10.65;3.58;;;;;;;20.04;83.32;100301.16;5052417;28;20384;-71
2021/06/20 06:39:41;;;;;;;9.27;4.72;;;;;;;20.26;81.94;100316.94;5053612;28;20028;-71
2021/06/20 06:42:07;;;;;;;7.25;4.13;;;;;;;20.25;81.64;100310.84;5053409;28;20025;-71
2021/06/20 06:44:34;;;;;;;7.35;3.88;;;;;;;20.17;81.15;100304.72;5069392;28;20020;-71
2021/06/20 06:46:59;;;;;;;12.18;4.63;;;;;;;20.10;81.43;100303.78;5066646;28;20053;-71
2021/06/20 06:49:25;;;;;;;6.97;3.58;;;;;;;20.33;81.39;100312.63;5062801;28;20132;-71
2021/06/20 06:51:51;;;;;;;7.47;4.60;;;;;;;19.96;82.08;100318.53;5061444;28;20478;-71
2021/06/20 06:54:17;;;;;;;7.78;5.10;;;;;;;20.43;80.92;100310.00;5061179;28;20104;-71
2021/06/20 06:56:43;;;;;;;8.65;4.30;;;;;;;20.18;82.67;100302.94;5060228;28;20083;-71
2021/06/20 06:59:09;;;;;;;14.07;4.50;;;;;;;20.31;80.70;100299.50;5052029;28;20121;-71
2021/06/20 07:01:35;;;;;;;12.75;4.30;;;;;;;20.50;78.92;100290.00;5053027;28;20032;-71
2021/06/20 07:04:01;;;;;;;10.68;4.00;;;;;;;20.68;79.84;100289.19;5051883;28;20029;-71
2021/06/20 07:06:27;;;;;;;10.95;3.90;;;;;;;20.78;80.95;100278.72;5053024;28;20100;-71
2021/06/20 07:08:53;;;;;;;7.68;3.65;;;;;;;21.37;78.30;100281.38;5035121;28;20028;-71
2021/06/20 07:11:19;;;;;;;9.05;3.67;;;;;;;21.51;77.06;100284.84;5064228;28;20052;-71
2021/06/20 07:13:44;;;;;;;12.68;4.00;;;;;;;21.01;78.00;100282.25;5072875;28;20027;-71
2021/06/20 07:16:10;;;;;;;7.00;4.10;;;;;;;21.14;78.83;100293.59;5080964;28;20027;-71
2021/06/20 07:18:35;;;;;;;8.05;3.30;;;;;;;21.07;77.84;100291.84;5056832;28;20032;-71
2021/06/20 07:21:02;;;;;;;9.63;4.65;;;;;;;21.33;76.74;100297.97;5081277;28;20028;-71
2021/06/20 07:23:28;;;;;;;8.10;4.22;;;;;;;20.72;80.98;100296.16;5073075;28;20020;-71
2021/06/20 07:25:54;;;;;;;13.20;3.90;;;;;;;21.05;79.87;100290.13;5074051;28;20016;-71
2021/06/20 07:31:41;;;;;;;7.78;3.67;;;;;;;21.85;77.84;100297.91;5065846;28;20038;-71
2021/06/20 07:34:06;;;;;;;10.52;5.15;;;;;;;21.66;79.60;100290.94;5059880;28;20028;-71
2021/06/20 07:36:32;;;;;;;7.60;4.18;;;;;;;22.44;79.67;100302.91;5072722;28;20036;-71
2021/06/20 07:38:58;;;;;;;10.50;4.07;;;;;;;21.99;75.93;100299.63;5054770;28;20097;-71
2021/06/20 07:41:24;;;;;;;7.57;3.67;;;;;;;21.96;77.58;100304.88;5055073;28;20028;-71
2021/06/20 07:43:51;;;;;;;7.38;3.63;;;;;;;22.27;76.82;100294.25;5071372;28;20024;-71
2021/06/20 07:46:16;;;;;;;10.70;3.90;;;;;;;22.55;75.58;100304.63;5067118;28;20056;-71
2021/06/20 07:48:42;;;;;;;7.78;4.20;;;;;;;22.20;73.28;100289.94;5081506;28;20104;-71
2021/06/20 07:51:07;;;;;;;8.07;3.63;;;;;;;21.86;76.27;100294.41;5080976;28;20028;-71
2021/06/20 07:53:33;;;;;;;13.52;4.25;;;;;;;22.10;75.08;100282.09;5073250;28;20035;-70
2021/06/20 07:55:58;;;;;;;15.50;4.43;;;;;;;22.74;77.29;100289.66;5071954;28;20498;-71
2021/06/20 07:58:24;;;;;;;6.15;3.35;;;;;;;23.01;74.99;100285.97;5071228;28;20024;-76
2021/06/20 08:00:49;;;;;;;10.98;3.38;;;;;;;23.30;74.09;100305.91;5072239;28;20028;-74
2021/06/20 08:03:15;;;;;;;8.20;3.50;;;;;;;23.34;71.00;100302.34;5072139;28;20024;-72
2021/06/20 08:05:41;;;;;;;11.23;4.63;;;;;;;23.25;70.07;100302.44;5065085;28;20038;-73
2021/06/20 08:08:06;;;;;;;7.70;3.60;;;;;;;23.34;72.72;100296.25;5074820;28;20524;-73
2021/06/20 08:10:41;;;;;;;9.35;3.35;;;;;;;23.57;70.59;100298.63;5071439;28;20034;-72
2021/06/20 08:13:06;;;;;;;9.07;3.20;;;;;;;23.49;73.15;100292.56;5053516;28;20052;-72
2021/06/20 08:15:32;;;;;;;8.10;3.10;;;;;;;23.47;69.70;100275.94;5074469;28;20117;-72
2021/06/20 08:17:58;;;;;;;8.20;3.05;;;;;;;23.90;68.67;100279.88;5054376;28;20172;-72
2021/06/20 08:20:23;;;;;;;8.90;3.25;;;;;;;24.11;69.63;100273.53;5082171;28;20429;-72
2021/06/20 08:22:48;;;;;;;11.95;3.78;;;;;;;24.23;68.99;100287.41;5069912;28;20036;-72
2021/06/20 08:25:14;;;;;;;8.73;3.05;;;;;;;24.25;65.89;100285.63;5075115;28;20032;-72
2021/06/20 08:27:41;;;;;;;7.53;2.80;;;;;;;24.57;65.39;100289.56;5072025;28;20025;-72
2021/06/20 08:30:08;;;;;;;9.65;3.20;;;;;;;24.42;65.59;100293.31;5071250;28;20358;-73
2021/06/20 08:32:33;;;;;;;6.72;3.08;;;;;;;24.84;64.65;100284.81;5053859;28;20032;-73
2021/06/20 08:35:00;;;;;;;7.63;3.03;;;;;;;25.26;63.48;100302.56;5055016;28;20020;-73
2021/06/20 08:37:27;;;;;;;10.02;3.50;;;;;;;25.23;63.06;100308.78;5054687;28;20381;-72
2021/06/20 08:39:53;;;;;;;11.85;3.30;;;;;;;25.64;63.20;100304.56;5068568;28;20028;-76
2021/06/20 08:42:19;;;;;;;8.50;3.15;;;;;;;25.40;62.52;100310.25;5060116;28;20103;-74
2021/06/20 08:44:45;;;;;;;8.65;3.05;;;;;;;25.66;61.65;100308.03;5055313;28;20107;-75
2021/06/20 08:47:13;;;;;;;17.25;3.78;;;;;;;25.06;61.84;100312.56;5074502;28;20077;-74
2021/06/20 08:49:38;;;;;;;9.93;3.90;;;;;;;25.34;61.38;100303.31;5058260;28;20550;-74
2021/06/20 08:52:04;;;;;;;7.70;3.60;;;;;;;24.82;63.39;100312.94;5075026;28;20036;-75
2021/06/20 08:54:32;;;;;;;12.75;3.50;;;;;;;24.60;63.40;100302.69;5093118;28;20053;-74
2021/06/20 08:56:58;;;;;;;8.70;3.60;;;;;;;24.72;64.23;100313.03;5092848;28;20043;-74
2021/06/20 08:59:24;;;;;;;11.40;3.55;;;;;;;24.93;64.24;100321.56;5074802;28;20063;-74
2021/06/20 09:01:51;;;;;;;10.50;3.97;;;;;;;24.51;63.68;100320.34;5074729;28;20028;-74
2021/06/20 09:04:31;;;;;;;13.02;3.70;;;;;;;24.41;65.75;100331.91;5074086;28;20103;-74
2021/06/20 09:07:02;;;;;;;7.55;4.03;;;;;;;24.08;65.24;100347.22;5074477;28;20035;-74
2021/06/20 09:09:30;;;;;;;8.30;3.72;;;;;;;23.83;63.75;100350.06;5092937;28;20026;-74
2021/06/20 09:12:07;;;;;;;11.38;3.60;;;;;;;24.10;63.28;100340.19;5041139;28;20199;-71
2021/06/20 09:14:41;;;;;;;9.85;3.42;;;;;;;24.16;63.61;100344.50;5072963;28;20469;-71
2021/06/20 09:17:06;;;;;;;6.70;3.55;;;;;;;24.16;64.22;100342.75;5083868;28;20054;-71
2021/06/20 09:19:36;;;;;;;6.63;3.80;;;;;;;24.00;64.90;100351.69;5069197;28;20465;-71
2021/06/20 09:22:09;;;;;;;7.15;3.70;;;;;;;23.95;65.48;100358.75;5071721;28;20074;-72
2021/06/20 09:24:36;;;;;;;7.82;3.60;;;;;;;23.89;64.74;100368.44;5079189;28;20064;-74
2021/06/20 09:27:02;;;;;;;13.52;4.45;;;;;;;24.42;64.30;100367.88;5071341;28;20016;-74
2021/06/20 09:29:38;;;;;;;11.60;4.50;;;;;;;24.29;63.28;100376.81;5080802;28;20033;-73
2021/06/20 09:32:07;;;;;;;8.90;3.28;;;;;;;24.47;61.36;100366.03;5082343;28;20081;-73
2021/06/20 09:34:47;;;;;;;11.25;4.50;;;;;;;24.28;63.28;100369.78;5070636;28;20047;-73
2021/06/20 09:37:13;;;;;;;10.70;6.35;;;;;;;24.55;61.23;100378.22;5064935;28;20168;-73
2021/06/20 09:39:39;;;;;;;8.55;4.20;;;;;;;24.44;61.57;100381.88;5063325;28;20027;-74
2021/06/20 09:42:10;;;;;;;6.63;3.70;;;;;;;23.80;61.53;100399.19;5077306;28;20020;-74
2021/06/20 09:44:48;;;;;;;8.90;3.90;;;;;;;24.02;63.40;100394.66;5065142;28;20377;-74
2021/06/20 09:47:19;;;;;;;7.30;3.80;;;;;;;23.99;61.84;100394.66;5066208;28;20016;-74
2021/06/20 09:49:48;;;;;;;10.68;4.13;;;;;;;24.06;63.58;100396.34;5065785;28;20039;-74
2021/06/20 09:52:24;;;;;;;;;;;;;;;23.73;63.05;100408.88;5066593;28;20140;-74
2021/06/20 09:54:58;;;;;;;9.45;4.22;;;;;;;23.35;62.88;100403.09;5053025;28;20253;-74
2021/06/20 09:57:25;;;;;;;10.05;4.50;;;;;;;23.45;63.18;100409.13;5058112;28;20108;-74
2021/06/20 09:59:59;;;;;;;10.75;4.32;;;;;;;23.56;63.72;100396.78;5082920;28;20035;-74
2021/06/20 10:02:29;;;;;;;8.25;4.60;;;;;;;23.54;63.70;100388.03;5056225;28;20035;-74
2021/06/20 10:04:56;;;;;;;16.02;7.07;;;;;;;23.61;63.25;100389.72;5072482;28;20032;-74
2021/06/20 10:07:26;;;;;;;8.70;4.93;;;;;;;23.81;61.50;100395.69;5080058;28;20044;-73
2021/06/20 10:09:52;;;;;;;8.20;4.22;;;;;;;23.92;62.10;100394.72;5066870;28;20469;-73
2021/06/20 10:12:18;;;;;;;8.65;4.10;;;;;;;24.16;60.19;100386.59;5067401;28;20051;-73
2021/06/20 10:14:45;;;;;;;9.75;4.50;;;;;;;23.89;62.78;100394.75;5072030;28;20032;-74
2021/06/20 10:17:16;;;;;;;10.00;4.43;;;;;;;24.48;60.45;100385.34;5073100;28;20059;-73
2021/06/20 10:19:50;;;;;;;8.70;5.03;;;;;;;24.89;59.68;100373.41;5070844;28;20148;-74
2021/06/20 10:22:17;;;;;;;10.10;4.70;;;;;;;27.93;51.22;100382.25;5084725;28;20043;-73
2021/06/20 10:24:55;;;;;;;6.43;4.45;;;;;;;29.71;45.80;100362.72;5053748;28;20084;-72
2021/06/20 10:27:28;;;;;;;10.80;4.75;;;;;;;30.25;42.31;100373.25;5073294;28;20500;-74
2021/06/20 10:30:10;;;;;;;7.93;4.30;;;;;;;30.57;43.38;100379.09;5072213;28;21334;-74
2021/06/20 10:32:45;;;;;;;7.93;4.05;;;;;;;33.05;37.99;100380.06;5051529;28;20088;-74
2021/06/20 10:35:20;;;;;;;9.18;4.18;;;;;;;34.94;34.23;100372.81;5073151;28;20394;-73
2021/06/20 10:37:46;;;;;;;11.02;4.30;;;;;;;35.61;30.82;100376.16;5073517;28;20043;-73
2021/06/20 10:40:18;;;;;;;6.70;4.07;;;;;;;34.23;33.51;100382.06;5083172;28;20028;-73
2021/06/20 10:42:45;;;;;;;7.45;4.20;;;;;;;33.53;34.94;100376.84;5085583;28;20024;-73
2021/06/20 10:45:10;;;;;;;10.93;4.63;;;;;;;32.41;38.69;100375.03;5081393;28;20101;-73
2021/06/20 10:47:41;;;;;;;8.57;4.47;;;;;;;34.23;34.03;100369.59;5082808;28;20733;-73
2021/06/20 10:50:08;;;;;;;10.07;4.15;;;;;;;35.60;31.58;100363.72;5054675;28;20032;-73
2021/06/20 10:52:34;;;;;;;7.32;4.10;;;;;;;34.32;33.32;100370.88;5084123;28;20023;-73
2021/06/20 10:55:13;;;;;;;11.55;4.53;;;;;;;33.99;34.16;100389.63;5074560;28;20021;-74
2021/06/20 10:57:51;;;;;;;9.32;4.20;;;;;;;34.77;32.96;100380.94;5079318;28;20077;-73
2021/06/20 11:00:34;;;;;;;7.22;3.83;;;;;;;36.60;30.69;100372.75;5086814;28;20028;-74
2021/06/20 11:03:27;;;;;;;8.98;4.30;;;;;;;35.55;30.01;100371.19;5051664;28;20469;-73
2021/06/20 11:06:11;;;;;;;6.93;3.83;;;;;;;36.74;29.89;100365.63;5068019;28;20036;-74
2021/06/20 11:08:42;;;;;;;9.13;3.90;;;;;;;35.59;31.25;100381.59;5069229;28;20027;-73
2021/06/20 11:11:18;;;;;;;7.32;4.15;;;;;;;34.27;31.83;100367.59;5063495;28;20374;-74
2021/06/20 11:17:41;;;;;;;8.57;3.85;;;;;;;32.14;37.35;100374.47;5066156;28;20143;-71
2021/06/20 11:20:11;;;;;;;7.43;4.72;;;;;;;30.94;39.60;100375.94;5056631;28;20054;-72
2021/06/20 11:22:37;;;;;;;8.95;4.22;;;;;;;30.77;39.17;100368.66;5064033;28;20034;-71
2021/06/20 11:25:03;;;;;;;9.98;4.05;;;;;;;30.56;40.08;100366.75;5081116;28;20114;-73